sensor_id;sensor_type;location;lat;lon;timestamp;P1;durP1;ratioP1;P2;durP2;ratioP2
38379;SDS011;38377;47.418;18.882;2022-12-07T00:01:14;19.90;;;13.57;;
38379;SDS011;38377;47.418;18.882;2022-12-07T00:03:45;19.03;;;14.00;;
38379;SDS011;38377;47.418;18.882;2022-12-07T00:06:12;19.10;;;13.33;;
38379;SDS011;38377;47.418;18.882;2022-12-07T00:08:39;22.23;;;15.43;;
38379;SDS011;38377;47.418;18.882;2022-12-07T00:11:06;20.13;;;14.23;;
38379;SDS011;38377;47.418;18.882;2022-12-07T00:13:37;20.80;;;14.23;;
38379;SDS011;38377;47.418;18.882;2022-12-07T00:16:14;24.10;;;14.97;;
38379;SDS011;38377;47.418;18.882;2022-12-07T00:18:43;21.43;;;14.40;;
38379;SDS011;38377;47.418;18.882;2022-12-07T00:23:37;25.60;;;15.47;;
38379;SDS011;38377;47.418;18.882;2022-12-07T00:26:10;21.23;;;14.97;;
38379;SDS011;38377;47.418;18.882;2022-12-07T00:28:49;24.07;;;14.87;;
38379;SDS011;38377;47.418;18.882;2022-12-07T00:31:22;21.40;;;14.90;;
38379;SDS011;38377;47.418;18.882;2022-12-07T00:33:50;23.37;;;15.77;;
38379;SDS011;38377;47.418;18.882;2022-12-07T00:36:17;26.37;;;17.10;;
38379;SDS011;38377;47.418;18.882;2022-12-07T00:38:45;26.70;;;15.50;;
38379;SDS011;38377;47.418;18.882;2022-12-07T00:41:19;27.27;;;17.50;;
38379;SDS011;38377;47.418;18.882;2022-12-07T00:43:47;25.60;;;16.80;;
38379;SDS011;38377;47.418;18.882;2022-12-07T00:46:14;26.27;;;16.67;;
38379;SDS011;38377;47.418;18.882;2022-12-07T00:48:40;26.03;;;16.30;;
38379;SDS011;38377;47.418;18.882;2022-12-07T00:51:07;21.73;;;15.80;;
38379;SDS011;38377;47.418;18.882;2022-12-07T00:53:34;23.27;;;14.90;;
38379;SDS011;38377;47.418;18.882;2022-12-07T00:56:13;19.93;;;14.13;;
38379;SDS011;38377;47.418;18.882;2022-12-07T00:58:40;20.17;;;14.00;;
38379;SDS011;38377;47.418;18.882;2022-12-07T01:01:06;22.37;;;13.80;;
38379;SDS011;38377;47.418;18.882;2022-12-07T01:03:33;18.60;;;13.17;;
38379;SDS011;38377;47.418;18.882;2022-12-07T01:06:00;17.60;;;13.07;;
38379;SDS011;38377;47.418;18.882;2022-12-07T01:08:26;19.00;;;12.70;;
38379;SDS011;38377;47.418;18.882;2022-12-07T01:11:03;18.37;;;13.63;;
38379;SDS011;38377;47.418;18.882;2022-12-07T01:13:31;17.37;;;13.50;;
38379;SDS011;38377;47.418;18.882;2022-12-07T01:15:59;20.43;;;13.87;;
38379;SDS011;38377;47.418;18.882;2022-12-07T01:18:32;18.20;;;13.40;;
38379;SDS011;38377;47.418;18.882;2022-12-07T01:23:29;17.65;;;13.10;;
38379;SDS011;38377;47.418;18.882;2022-12-07T01:26:00;18.33;;;13.20;;
38379;SDS011;38377;47.418;18.882;2022-12-07T01:30:56;20.50;;;13.77;;
38379;SDS011;38377;47.418;18.882;2022-12-07T01:33:22;19.57;;;13.07;;
38379;SDS011;38377;47.418;18.882;2022-12-07T01:35:48;21.00;;;13.20;;
38379;SDS011;38377;47.418;18.882;2022-12-07T01:38:14;19.60;;;12.97;;
38379;SDS011;38377;47.418;18.882;2022-12-07T01:40:39;20.40;;;13.33;;
38379;SDS011;38377;47.418;18.882;2022-12-07T01:43:15;20.90;;;13.90;;
38379;SDS011;38377;47.418;18.882;2022-12-07T01:45:43;23.40;;;15.10;;
38379;SDS011;38377;47.418;18.882;2022-12-07T01:48:09;23.53;;;14.83;;
38379;SDS011;38377;47.418;18.882;2022-12-07T01:50:37;21.67;;;14.57;;
38379;SDS011;38377;47.418;18.882;2022-12-07T01:53:05;22.57;;;15.20;;
38379;SDS011;38377;47.418;18.882;2022-12-07T01:55:34;24.77;;;16.30;;
38379;SDS011;38377;47.418;18.882;2022-12-07T01:58:05;24.88;;;16.10;;
38379;SDS011;38377;47.418;18.882;2022-12-07T02:00:31;22.23;;;15.83;;
38379;SDS011;38377;47.418;18.882;2022-12-07T02:03:05;27.03;;;16.13;;
38379;SDS011;38377;47.418;18.882;2022-12-07T02:05:50;24.23;;;16.40;;
38379;SDS011;38377;47.418;18.882;2022-12-07T02:08:17;22.90;;;15.87;;
38379;SDS011;38377;47.418;18.882;2022-12-07T02:10:44;21.50;;;14.97;;
38379;SDS011;38377;47.418;18.882;2022-12-07T02:13:15;23.43;;;16.23;;
38379;SDS011;38377;47.418;18.882;2022-12-07T02:34:49;21.53;;;15.17;;
38379;SDS011;38377;47.418;18.882;2022-12-07T02:40:25;22.47;;;16.23;;
38379;SDS011;38377;47.418;18.882;2022-12-07T02:43:06;21.60;;;15.37;;
38379;SDS011;38377;47.418;18.882;2022-12-07T02:45:37;20.77;;;14.20;;
38379;SDS011;38377;47.418;18.882;2022-12-07T02:48:05;19.37;;;13.63;;
38379;SDS011;38377;47.418;18.882;2022-12-07T02:50:32;20.73;;;13.83;;
38379;SDS011;38377;47.418;18.882;2022-12-07T02:52:58;20.60;;;15.07;;
38379;SDS011;38377;47.418;18.882;2022-12-07T02:55:26;20.00;;;14.23;;
38379;SDS011;38377;47.418;18.882;2022-12-07T02:58:08;23.83;;;14.77;;
38379;SDS011;38377;47.418;18.882;2022-12-07T03:00:52;21.67;;;15.87;;
38379;SDS011;38377;47.418;18.882;2022-12-07T03:03:28;19.55;;;14.63;;
38379;SDS011;38377;47.418;18.882;2022-12-07T03:06:12;23.43;;;15.87;;
38379;SDS011;38377;47.418;18.882;2022-12-07T03:08:45;24.07;;;15.83;;
38379;SDS011;38377;47.418;18.882;2022-12-07T03:11:25;21.80;;;15.43;;
38379;SDS011;38377;47.418;18.882;2022-12-07T03:14:45;21.50;;;15.33;;
38379;SDS011;38377;47.418;18.882;2022-12-07T03:16:56;23.37;;;16.10;;
38379;SDS011;38377;47.418;18.882;2022-12-07T03:19:37;20.50;;;15.00;;
38379;SDS011;38377;47.418;18.882;2022-12-07T03:22:08;21.03;;;15.67;;
38379;SDS011;38377;47.418;18.882;2022-12-07T03:24:55;21.47;;;15.80;;
38379;SDS011;38377;47.418;18.882;2022-12-07T03:27:28;19.50;;;15.10;;
38379;SDS011;38377;47.418;18.882;2022-12-07T03:30:18;20.90;;;16.57;;
38379;SDS011;38377;47.418;18.882;2022-12-07T03:32:48;20.70;;;15.93;;
38379;SDS011;38377;47.418;18.882;2022-12-07T03:35:34;20.73;;;15.43;;
38379;SDS011;38377;47.418;18.882;2022-12-07T03:38:15;21.20;;;16.15;;
38379;SDS011;38377;47.418;18.882;2022-12-07T03:41:04;22.13;;;15.20;;
38379;SDS011;38377;47.418;18.882;2022-12-07T03:43:39;25.00;;;17.33;;
38379;SDS011;38377;47.418;18.882;2022-12-07T03:52:07;22.57;;;16.77;;
38379;SDS011;38377;47.418;18.882;2022-12-07T03:54:58;23.73;;;16.03;;
38379;SDS011;38377;47.418;18.882;2022-12-07T03:57:34;25.08;;;17.50;;
38379;SDS011;38377;47.418;18.882;2022-12-07T04:00:03;24.60;;;17.13;;
38379;SDS011;38377;47.418;18.882;2022-12-07T04:02:30;23.43;;;16.07;;
38379;SDS011;38377;47.418;18.882;2022-12-07T04:04:57;23.87;;;16.97;;
38379;SDS011;38377;47.418;18.882;2022-12-07T04:07:22;22.70;;;16.63;;
38379;SDS011;38377;47.418;18.882;2022-12-07T04:09:48;23.70;;;17.03;;
38379;SDS011;38377;47.418;18.882;2022-12-07T04:12:14;25.87;;;17.47;;
38379;SDS011;38377;47.418;18.882;2022-12-07T04:14:40;22.90;;;16.57;;
38379;SDS011;38377;47.418;18.882;2022-12-07T04:17:06;23.37;;;16.70;;
38379;SDS011;38377;47.418;18.882;2022-12-07T04:19:32;23.60;;;17.27;;
38379;SDS011;38377;47.418;18.882;2022-12-07T04:21:59;22.87;;;16.37;;
38379;SDS011;38377;47.418;18.882;2022-12-07T04:24:26;23.17;;;17.43;;
38379;SDS011;38377;47.418;18.882;2022-12-07T04:26:52;23.30;;;17.03;;
38379;SDS011;38377;47.418;18.882;2022-12-07T04:29:18;21.80;;;16.00;;
38379;SDS011;38377;47.418;18.882;2022-12-07T04:31:44;28.20;;;18.20;;
38379;SDS011;38377;47.418;18.882;2022-12-07T04:34:11;21.77;;;16.00;;
38379;SDS011;38377;47.418;18.882;2022-12-07T04:36:37;24.77;;;17.57;;
38379;SDS011;38377;47.418;18.882;2022-12-07T04:39:03;21.87;;;16.43;;
38379;SDS011;38377;47.418;18.882;2022-12-07T04:41:31;25.27;;;17.60;;
38379;SDS011;38377;47.418;18.882;2022-12-07T04:43:58;25.17;;;17.40;;
38379;SDS011;38377;47.418;18.882;2022-12-07T04:46:26;25.03;;;17.73;;
38379;SDS011;38377;47.418;18.882;2022-12-07T04:48:53;25.40;;;17.83;;
38379;SDS011;38377;47.418;18.882;2022-12-07T04:51:20;25.57;;;17.97;;
38379;SDS011;38377;47.418;18.882;2022-12-07T04:53:48;25.90;;;18.20;;
38379;SDS011;38377;47.418;18.882;2022-12-07T04:56:14;24.90;;;17.70;;
38379;SDS011;38377;47.418;18.882;2022-12-07T04:58:41;26.63;;;18.10;;
38379;SDS011;38377;47.418;18.882;2022-12-07T05:01:08;24.07;;;18.17;;
38379;SDS011;38377;47.418;18.882;2022-12-07T05:03:35;26.60;;;18.97;;
38379;SDS011;38377;47.418;18.882;2022-12-07T05:06:01;27.50;;;19.10;;
38379;SDS011;38377;47.418;18.882;2022-12-07T05:08:28;27.87;;;18.47;;
38379;SDS011;38377;47.418;18.882;2022-12-07T05:10:53;27.63;;;19.27;;
38379;SDS011;38377;47.418;18.882;2022-12-07T05:13:19;29.57;;;19.17;;
38379;SDS011;38377;47.418;18.882;2022-12-07T05:15:46;26.20;;;18.87;;
38379;SDS011;38377;47.418;18.882;2022-12-07T05:18:12;27.30;;;19.27;;
38379;SDS011;38377;47.418;18.882;2022-12-07T05:20:38;26.37;;;19.67;;
38379;SDS011;38377;47.418;18.882;2022-12-07T05:23:04;25.20;;;19.50;;
38379;SDS011;38377;47.418;18.882;2022-12-07T05:25:30;23.50;;;18.47;;
38379;SDS011;38377;47.418;18.882;2022-12-07T05:27:56;27.47;;;19.53;;
38379;SDS011;38377;47.418;18.882;2022-12-07T05:30:23;25.13;;;18.40;;
38379;SDS011;38377;47.418;18.882;2022-12-07T05:32:49;26.37;;;16.87;;
38379;SDS011;38377;47.418;18.882;2022-12-07T05:35:16;27.53;;;19.53;;
38379;SDS011;38377;47.418;18.882;2022-12-07T05:37:42;26.33;;;19.67;;
38379;SDS011;38377;47.418;18.882;2022-12-07T05:40:09;29.43;;;19.50;;
38379;SDS011;38377;47.418;18.882;2022-12-07T05:42:35;28.43;;;19.93;;
38379;SDS011;38377;47.418;18.882;2022-12-07T05:45:00;30.53;;;20.47;;
38379;SDS011;38377;47.418;18.882;2022-12-07T05:47:26;31.70;;;20.53;;
38379;SDS011;38377;47.418;18.882;2022-12-07T05:49:52;31.30;;;21.37;;
38379;SDS011;38377;47.418;18.882;2022-12-07T05:52:18;34.23;;;19.47;;
38379;SDS011;38377;47.418;18.882;2022-12-07T05:54:44;30.10;;;21.10;;
38379;SDS011;38377;47.418;18.882;2022-12-07T05:57:09;30.43;;;21.90;;
38379;SDS011;38377;47.418;18.882;2022-12-07T05:59:35;30.80;;;19.83;;
38379;SDS011;38377;47.418;18.882;2022-12-07T06:02:02;29.50;;;20.53;;
38379;SDS011;38377;47.418;18.882;2022-12-07T06:04:31;33.13;;;21.83;;
38379;SDS011;38377;47.418;18.882;2022-12-07T06:06:59;29.73;;;20.43;;
38379;SDS011;38377;47.418;18.882;2022-12-07T06:09:25;32.93;;;22.37;;
38379;SDS011;38377;47.418;18.882;2022-12-07T06:11:51;34.87;;;21.87;;
38379;SDS011;38377;47.418;18.882;2022-12-07T06:14:36;32.93;;;21.30;;
38379;SDS011;38377;47.418;18.882;2022-12-07T06:17:02;34.30;;;21.83;;
38379;SDS011;38377;47.418;18.882;2022-12-07T06:19:28;38.77;;;23.50;;
38379;SDS011;38377;47.418;18.882;2022-12-07T06:21:53;41.03;;;24.73;;
38379;SDS011;38377;47.418;18.882;2022-12-07T06:24:19;33.77;;;22.00;;
38379;SDS011;38377;47.418;18.882;2022-12-07T06:26:45;40.03;;;23.27;;
38379;SDS011;38377;47.418;18.882;2022-12-07T06:29:11;38.57;;;22.90;;
38379;SDS011;38377;47.418;18.882;2022-12-07T06:31:38;36.87;;;23.67;;
38379;SDS011;38377;47.418;18.882;2022-12-07T06:34:05;34.33;;;23.57;;
38379;SDS011;38377;47.418;18.882;2022-12-07T06:36:33;39.83;;;24.10;;
38379;SDS011;38377;47.418;18.882;2022-12-07T06:38:59;39.50;;;25.00;;
38379;SDS011;38377;47.418;18.882;2022-12-07T06:41:25;37.67;;;24.53;;
38379;SDS011;38377;47.418;18.882;2022-12-07T06:43:50;39.43;;;24.93;;
38379;SDS011;38377;47.418;18.882;2022-12-07T06:46:16;39.03;;;23.80;;
38379;SDS011;38377;47.418;18.882;2022-12-07T06:51:17;43.10;;;25.40;;
38379;SDS011;38377;47.418;18.882;2022-12-07T06:53:43;39.63;;;25.70;;
38379;SDS011;38377;47.418;18.882;2022-12-07T06:56:09;40.73;;;25.10;;
38379;SDS011;38377;47.418;18.882;2022-12-07T06:58:34;37.60;;;24.77;;
38379;SDS011;38377;47.418;18.882;2022-12-07T07:01:00;37.60;;;24.30;;
38379;SDS011;38377;47.418;18.882;2022-12-07T07:03:26;37.13;;;23.70;;
38379;SDS011;38377;47.418;18.882;2022-12-07T07:05:51;35.83;;;23.43;;
38379;SDS011;38377;47.418;18.882;2022-12-07T07:08:17;35.40;;;23.17;;
38379;SDS011;38377;47.418;18.882;2022-12-07T07:10:43;35.57;;;22.17;;
38379;SDS011;38377;47.418;18.882;2022-12-07T07:13:09;32.70;;;22.53;;
38379;SDS011;38377;47.418;18.882;2022-12-07T07:15:34;35.73;;;23.47;;
38379;SDS011;38377;47.418;18.882;2022-12-07T07:18:02;39.33;;;23.63;;
38379;SDS011;38377;47.418;18.882;2022-12-07T07:20:28;36.53;;;22.53;;
38379;SDS011;38377;47.418;18.882;2022-12-07T07:22:54;33.23;;;21.60;;
38379;SDS011;38377;47.418;18.882;2022-12-07T07:25:20;31.97;;;21.53;;
38379;SDS011;38377;47.418;18.882;2022-12-07T07:27:46;31.57;;;21.27;;
38379;SDS011;38377;47.418;18.882;2022-12-07T07:30:12;31.33;;;20.00;;
38379;SDS011;38377;47.418;18.882;2022-12-07T07:32:38;31.43;;;20.53;;
38379;SDS011;38377;47.418;18.882;2022-12-07T07:35:03;31.73;;;19.93;;
38379;SDS011;38377;47.418;18.882;2022-12-07T07:37:29;30.37;;;20.60;;
38379;SDS011;38377;47.418;18.882;2022-12-07T07:39:55;32.20;;;21.13;;
38379;SDS011;38377;47.418;18.882;2022-12-07T07:42:21;30.87;;;21.87;;
38379;SDS011;38377;47.418;18.882;2022-12-07T07:44:47;32.60;;;22.60;;
38379;SDS011;38377;47.418;18.882;2022-12-07T07:47:12;31.40;;;20.70;;
38379;SDS011;38377;47.418;18.882;2022-12-07T07:49:38;32.37;;;21.53;;
38379;SDS011;38377;47.418;18.882;2022-12-07T07:52:05;35.40;;;21.70;;
38379;SDS011;38377;47.418;18.882;2022-12-07T07:54:31;32.70;;;20.70;;
38379;SDS011;38377;47.418;18.882;2022-12-07T07:56:56;28.57;;;21.00;;
38379;SDS011;38377;47.418;18.882;2022-12-07T07:59:22;34.27;;;21.73;;
38379;SDS011;38377;47.418;18.882;2022-12-07T08:01:49;31.87;;;22.07;;
38379;SDS011;38377;47.418;18.882;2022-12-07T08:04:15;32.00;;;21.20;;
38379;SDS011;38377;47.418;18.882;2022-12-07T08:06:41;31.70;;;20.97;;
38379;SDS011;38377;47.418;18.882;2022-12-07T08:09:07;31.90;;;21.33;;
38379;SDS011;38377;47.418;18.882;2022-12-07T08:11:33;27.80;;;19.80;;
38379;SDS011;38377;47.418;18.882;2022-12-07T08:13:59;33.83;;;22.30;;
38379;SDS011;38377;47.418;18.882;2022-12-07T08:16:28;29.40;;;21.17;;
38379;SDS011;38377;47.418;18.882;2022-12-07T08:18:54;29.10;;;20.70;;
38379;SDS011;38377;47.418;18.882;2022-12-07T08:21:19;27.40;;;20.43;;
38379;SDS011;38377;47.418;18.882;2022-12-07T08:23:45;25.87;;;19.40;;
38379;SDS011;38377;47.418;18.882;2022-12-07T08:26:14;26.63;;;18.67;;
38379;SDS011;38377;47.418;18.882;2022-12-07T08:28:41;26.20;;;18.87;;
38379;SDS011;38377;47.418;18.882;2022-12-07T08:31:08;25.80;;;19.10;;
38379;SDS011;38377;47.418;18.882;2022-12-07T08:33:36;27.43;;;18.83;;
38379;SDS011;38377;47.418;18.882;2022-12-07T08:36:05;30.00;;;20.33;;
38379;SDS011;38377;47.418;18.882;2022-12-07T08:38:36;27.63;;;19.30;;
38379;SDS011;38377;47.418;18.882;2022-12-07T08:41:03;26.27;;;18.37;;
38379;SDS011;38377;47.418;18.882;2022-12-07T08:43:29;29.23;;;18.60;;
38379;SDS011;38377;47.418;18.882;2022-12-07T08:48:33;24.33;;;17.50;;
38379;SDS011;38377;47.418;18.882;2022-12-07T08:51:04;24.73;;;17.65;;
38379;SDS011;38377;47.418;18.882;2022-12-07T08:53:29;25.45;;;17.25;;
38379;SDS011;38377;47.418;18.882;2022-12-07T08:55:56;21.88;;;15.63;;
38379;SDS011;38377;47.418;18.882;2022-12-07T08:58:23;24.15;;;17.40;;
38379;SDS011;38377;47.418;18.882;2022-12-07T09:00:49;25.08;;;17.27;;
38379;SDS011;38377;47.418;18.882;2022-12-07T09:03:14;25.25;;;17.45;;
38379;SDS011;38377;47.418;18.882;2022-12-07T09:05:40;22.40;;;15.73;;
38379;SDS011;38377;47.418;18.882;2022-12-07T09:08:06;21.38;;;16.00;;
38379;SDS011;38377;47.418;18.882;2022-12-07T09:10:32;22.98;;;15.50;;
38379;SDS011;38377;47.418;18.882;2022-12-07T09:12:58;24.20;;;17.00;;
38379;SDS011;38377;47.418;18.882;2022-12-07T09:15:26;25.17;;;16.23;;
38379;SDS011;38377;47.418;18.882;2022-12-07T09:17:53;23.80;;;16.10;;
38379;SDS011;38377;47.418;18.882;2022-12-07T09:20:19;33.25;;;18.08;;
38379;SDS011;38377;47.418;18.882;2022-12-07T09:22:44;21.27;;;15.05;;
38379;SDS011;38377;47.418;18.882;2022-12-07T09:25:10;23.33;;;17.15;;
38379;SDS011;38377;47.418;18.882;2022-12-07T09:27:36;19.23;;;13.85;;
38379;SDS011;38377;47.418;18.882;2022-12-07T09:30:02;19.75;;;13.73;;
38379;SDS011;38377;47.418;18.882;2022-12-07T09:32:29;20.73;;;14.25;;
38379;SDS011;38377;47.418;18.882;2022-12-07T09:34:54;18.63;;;13.52;;
38379;SDS011;38377;47.418;18.882;2022-12-07T09:37:20;19.35;;;13.80;;
38379;SDS011;38377;47.418;18.882;2022-12-07T09:39:46;16.65;;;12.73;;
38379;SDS011;38377;47.418;18.882;2022-12-07T09:42:19;20.50;;;13.40;;
38379;SDS011;38377;47.418;18.882;2022-12-07T09:44:49;25.53;;;17.77;;
38379;SDS011;38377;47.418;18.882;2022-12-07T09:47:15;17.73;;;13.43;;
38379;SDS011;38377;47.418;18.882;2022-12-07T09:49:40;18.27;;;13.75;;
38379;SDS011;38377;47.418;18.882;2022-12-07T09:54:44;17.75;;;14.23;;
38379;SDS011;38377;47.418;18.882;2022-12-07T09:57:13;18.23;;;13.15;;
38379;SDS011;38377;47.418;18.882;2022-12-07T09:59:39;18.45;;;13.50;;
38379;SDS011;38377;47.418;18.882;2022-12-07T10:05:04;21.13;;;14.55;;
38379;SDS011;38377;47.418;18.882;2022-12-07T10:07:32;15.68;;;11.95;;
38379;SDS011;38377;47.418;18.882;2022-12-07T10:09:57;19.75;;;13.15;;
38379;SDS011;38377;47.418;18.882;2022-12-07T10:12:23;19.85;;;13.45;;
38379;SDS011;38377;47.418;18.882;2022-12-07T10:15:07;18.02;;;13.25;;
38379;SDS011;38377;47.418;18.882;2022-12-07T10:20:14;19.52;;;14.30;;
38379;SDS011;38377;47.418;18.882;2022-12-07T10:22:55;19.40;;;13.18;;
38379;SDS011;38377;47.418;18.882;2022-12-07T10:25:27;19.55;;;14.23;;
38379;SDS011;38377;47.418;18.882;2022-12-07T10:30:32;18.38;;;13.82;;
38379;SDS011;38377;47.418;18.882;2022-12-07T10:35:56;19.42;;;13.65;;
38379;SDS011;38377;47.418;18.882;2022-12-07T10:38:23;17.30;;;13.00;;
38379;SDS011;38377;47.418;18.882;2022-12-07T10:41:05;18.35;;;12.48;;
38379;SDS011;38377;47.418;18.882;2022-12-07T10:43:32;15.48;;;11.80;;
38379;SDS011;38377;47.418;18.882;2022-12-07T10:46:42;17.25;;;11.95;;
38379;SDS011;38377;47.418;18.882;2022-12-07T10:54:12;16.02;;;11.05;;
38379;SDS011;38377;47.418;18.882;2022-12-07T11:02:32;13.13;;;10.65;;
38379;SDS011;38377;47.418;18.882;2022-12-07T11:11:36;14.35;;;9.10;;
38379;SDS011;38377;47.418;18.882;2022-12-07T11:16:59;12.07;;;8.93;;
38379;SDS011;38377;47.418;18.882;2022-12-07T11:22:33;12.65;;;8.93;;
38379;SDS011;38377;47.418;18.882;2022-12-07T11:28:06;11.95;;;8.98;;
38379;SDS011;38377;47.418;18.882;2022-12-07T11:33:55;16.23;;;10.68;;
38379;SDS011;38377;47.418;18.882;2022-12-07T11:36:43;20.20;;;14.88;;
38379;SDS011;38377;47.418;18.882;2022-12-07T11:42:06;36.95;;;24.17;;
38379;SDS011;38377;47.418;18.882;2022-12-07T11:44:42;35.08;;;21.92;;
38379;SDS011;38377;47.418;18.882;2022-12-07T11:50:41;14.05;;;11.20;;
38379;SDS011;38377;47.418;18.882;2022-12-07T12:06:34;14.38;;;9.20;;
38379;SDS011;38377;47.418;18.882;2022-12-07T12:09:04;11.25;;;8.15;;
38379;SDS011;38377;47.418;18.882;2022-12-07T12:19:58;9.27;;;7.95;;
38379;SDS011;38377;47.418;18.882;2022-12-07T12:22:41;13.20;;;7.32;;
38379;SDS011;38377;47.418;18.882;2022-12-07T12:25:27;11.88;;;8.63;;
38379;SDS011;38377;47.418;18.882;2022-12-07T12:27:58;11.95;;;8.45;;
38379;SDS011;38377;47.418;18.882;2022-12-07T12:54:59;12.65;;;9.98;;
38379;SDS011;38377;47.418;18.882;2022-12-07T12:57:47;31.25;;;19.23;;
38379;SDS011;38377;47.418;18.882;2022-12-07T13:00:45;30.38;;;19.25;;
38379;SDS011;38377;47.418;18.882;2022-12-07T13:03:26;21.48;;;14.23;;
38379;SDS011;38377;47.418;18.882;2022-12-07T13:09:00;20.75;;;14.27;;
38379;SDS011;38377;47.418;18.882;2022-12-07T13:11:33;11.00;;;8.35;;
38379;SDS011;38377;47.418;18.882;2022-12-07T13:17:11;7.78;;;6.32;;
38379;SDS011;38377;47.418;18.882;2022-12-07T13:25:09;7.70;;;5.70;;
38379;SDS011;38377;47.418;18.882;2022-12-07T13:27:39;8.88;;;5.40;;
38379;SDS011;38377;47.418;18.882;2022-12-07T13:30:12;5.97;;;4.97;;
38379;SDS011;38377;47.418;18.882;2022-12-07T13:32:51;6.15;;;5.18;;
38379;SDS011;38377;47.418;18.882;2022-12-07T13:37:53;8.52;;;5.28;;
38379;SDS011;38377;47.418;18.882;2022-12-07T13:40:21;8.60;;;6.30;;
38379;SDS011;38377;47.418;18.882;2022-12-07T13:42:47;7.70;;;5.43;;
38379;SDS011;38377;47.418;18.882;2022-12-07T13:48:22;7.40;;;5.10;;
38379;SDS011;38377;47.418;18.882;2022-12-07T13:51:02;8.63;;;6.32;;
38379;SDS011;38377;47.418;18.882;2022-12-07T13:53:29;8.48;;;6.65;;
38379;SDS011;38377;47.418;18.882;2022-12-07T13:55:58;11.82;;;7.93;;
38379;SDS011;38377;47.418;18.882;2022-12-07T13:58:25;11.95;;;8.90;;
38379;SDS011;38377;47.418;18.882;2022-12-07T14:00:54;15.63;;;9.55;;
38379;SDS011;38377;47.418;18.882;2022-12-07T14:03:25;18.92;;;13.77;;
38379;SDS011;38377;47.418;18.882;2022-12-07T14:08:38;11.82;;;7.97;;
38379;SDS011;38377;47.418;18.882;2022-12-07T14:11:04;12.15;;;7.57;;
38379;SDS011;38377;47.418;18.882;2022-12-07T14:13:39;9.63;;;6.93;;
38379;SDS011;38377;47.418;18.882;2022-12-07T14:16:22;7.80;;;6.35;;
38379;SDS011;38377;47.418;18.882;2022-12-07T14:18:59;9.98;;;7.32;;
38379;SDS011;38377;47.418;18.882;2022-12-07T14:21:30;9.93;;;7.63;;
38379;SDS011;38377;47.418;18.882;2022-12-07T14:26:40;10.20;;;6.60;;
38379;SDS011;38377;47.418;18.882;2022-12-07T14:29:22;11.75;;;7.78;;
38379;SDS011;38377;47.418;18.882;2022-12-07T14:32:17;11.60;;;8.32;;
38379;SDS011;38377;47.418;18.882;2022-12-07T14:37:27;10.85;;;7.90;;
38379;SDS011;38377;47.418;18.882;2022-12-07T14:39:54;12.02;;;8.65;;
38379;SDS011;38377;47.418;18.882;2022-12-07T14:42:20;12.43;;;8.23;;
38379;SDS011;38377;47.418;18.882;2022-12-07T14:44:51;11.10;;;7.87;;
38379;SDS011;38377;47.418;18.882;2022-12-07T14:47:16;13.98;;;9.73;;
38379;SDS011;38377;47.418;18.882;2022-12-07T14:49:42;12.13;;;8.90;;
38379;SDS011;38377;47.418;18.882;2022-12-07T14:52:11;15.00;;;10.07;;
38379;SDS011;38377;47.418;18.882;2022-12-07T14:54:41;18.95;;;12.20;;
38379;SDS011;38377;47.418;18.882;2022-12-07T14:57:08;18.58;;;11.77;;
38379;SDS011;38377;47.418;18.882;2022-12-07T14:59:36;16.60;;;11.23;;
38379;SDS011;38377;47.418;18.882;2022-12-07T15:02:02;19.77;;;12.87;;
38379;SDS011;38377;47.418;18.882;2022-12-07T15:04:27;19.00;;;11.63;;
38379;SDS011;38377;47.418;18.882;2022-12-07T15:06:57;16.42;;;11.32;;
38379;SDS011;38377;47.418;18.882;2022-12-07T15:09:24;14.50;;;9.40;;
38379;SDS011;38377;47.418;18.882;2022-12-07T15:11:50;16.67;;;9.63;;
38379;SDS011;38377;47.418;18.882;2022-12-07T15:14:16;15.60;;;10.18;;
38379;SDS011;38377;47.418;18.882;2022-12-07T15:16:42;14.30;;;9.70;;
38379;SDS011;38377;47.418;18.882;2022-12-07T15:19:21;17.30;;;11.10;;
38379;SDS011;38377;47.418;18.882;2022-12-07T15:21:51;14.63;;;9.93;;
38379;SDS011;38377;47.418;18.882;2022-12-07T15:24:17;15.37;;;11.07;;
38379;SDS011;38377;47.418;18.882;2022-12-07T15:26:44;17.60;;;10.93;;
38379;SDS011;38377;47.418;18.882;2022-12-07T15:29:10;16.42;;;11.40;;
38379;SDS011;38377;47.418;18.882;2022-12-07T15:31:36;16.98;;;11.52;;
38379;SDS011;38377;47.418;18.882;2022-12-07T15:34:03;19.75;;;12.65;;
38379;SDS011;38377;47.418;18.882;2022-12-07T15:36:30;16.67;;;11.40;;
38379;SDS011;38377;47.418;18.882;2022-12-07T15:38:57;18.40;;;10.93;;
38379;SDS011;38377;47.418;18.882;2022-12-07T15:41:23;21.40;;;13.37;;
38379;SDS011;38377;47.418;18.882;2022-12-07T15:43:49;21.97;;;13.33;;
38379;SDS011;38377;47.418;18.882;2022-12-07T15:46:38;34.33;;;17.83;;
38379;SDS011;38377;47.418;18.882;2022-12-07T15:51:34;22.27;;;15.27;;
38379;SDS011;38377;47.418;18.882;2022-12-07T15:53:59;22.63;;;13.80;;
38379;SDS011;38377;47.418;18.882;2022-12-07T15:56:25;22.23;;;14.17;;
38379;SDS011;38377;47.418;18.882;2022-12-07T15:58:51;21.93;;;15.07;;
38379;SDS011;38377;47.418;18.882;2022-12-07T16:01:17;23.30;;;15.33;;
38379;SDS011;38377;47.418;18.882;2022-12-07T16:03:44;21.10;;;14.80;;
38379;SDS011;38377;47.418;18.882;2022-12-07T16:06:11;21.43;;;15.07;;
38379;SDS011;38377;47.418;18.882;2022-12-07T16:08:43;22.33;;;15.30;;
38379;SDS011;38377;47.418;18.882;2022-12-07T16:11:10;26.15;;;17.15;;
38379;SDS011;38377;47.418;18.882;2022-12-07T16:13:36;26.50;;;17.97;;
38379;SDS011;38377;47.418;18.882;2022-12-07T16:16:03;27.20;;;19.67;;
38379;SDS011;38377;47.418;18.882;2022-12-07T16:18:29;32.83;;;21.77;;
38379;SDS011;38377;47.418;18.882;2022-12-07T16:20:55;32.97;;;22.97;;
38379;SDS011;38377;47.418;18.882;2022-12-07T16:23:21;34.50;;;23.07;;
38379;SDS011;38377;47.418;18.882;2022-12-07T16:25:46;35.87;;;23.47;;
38379;SDS011;38377;47.418;18.882;2022-12-07T16:28:12;39.63;;;24.40;;
38379;SDS011;38377;47.418;18.882;2022-12-07T16:30:38;35.43;;;24.00;;
38379;SDS011;38377;47.418;18.882;2022-12-07T16:33:03;36.63;;;22.93;;
38379;SDS011;38377;47.418;18.882;2022-12-07T16:35:29;34.33;;;23.93;;
38379;SDS011;38377;47.418;18.882;2022-12-07T16:37:55;35.90;;;23.90;;
38379;SDS011;38377;47.418;18.882;2022-12-07T16:40:20;33.80;;;22.53;;
38379;SDS011;38377;47.418;18.882;2022-12-07T16:42:46;34.13;;;22.53;;
38379;SDS011;38377;47.418;18.882;2022-12-07T16:45:12;35.87;;;24.27;;
38379;SDS011;38377;47.418;18.882;2022-12-07T16:47:38;37.83;;;25.33;;
38379;SDS011;38377;47.418;18.882;2022-12-07T16:50:05;39.13;;;25.47;;
38379;SDS011;38377;47.418;18.882;2022-12-07T16:52:32;44.70;;;27.83;;
38379;SDS011;38377;47.418;18.882;2022-12-07T16:54:58;50.07;;;28.10;;
38379;SDS011;38377;47.418;18.882;2022-12-07T16:57:24;40.63;;;27.00;;
38379;SDS011;38377;47.418;18.882;2022-12-07T16:59:51;37.83;;;24.73;;
38379;SDS011;38377;47.418;18.882;2022-12-07T17:02:17;31.67;;;22.23;;
38379;SDS011;38377;47.418;18.882;2022-12-07T17:04:43;32.97;;;22.13;;
38379;SDS011;38377;47.418;18.882;2022-12-07T17:07:09;36.30;;;22.07;;